Time;durP1;ratioP1;P1;durP2;ratioP2;P2;SDS_P1;SDS_P2;PMS_P1;PMS_P2;Temp;Humidity;BMP_temperature;BMP_pressure;BME280_temperature;BME280_humidity;BME280_pressure;Samples;Min_cycle;Max_cycle;Signal;HPM_P1;HPM_P2
2022/05/15 00:02:12;;;;;;;1.60;1.43;;;12.60;98.00;;;;;;5053906;28;20443;-65
2022/05/15 00:04:39;;;;;;;3.60;1.93;;;12.70;98.00;;;;;;5053804;28;20471;-65
2022/05/15 00:07:08;;;;;;;1.30;1.20;;;12.70;98.00;;;;;;5053850;28;20462;-65
2022/05/15 00:09:35;;;;;;;1.60;1.40;;;12.80;98.00;;;;;;5053815;28;20998;-65
2022/05/15 00:12:04;;;;;;;1.60;1.50;;;12.80;98.00;;;;;;5053792;28;20455;-65
2022/05/15 00:14:31;;;;;;;1.70;1.60;;;12.60;98.00;;;;;;5053965;28;20462;-66
2022/05/15 00:16:58;;;;;;;1.90;1.70;;;12.50;98.00;;;;;;5053640;28;20468;-65
2022/05/15 00:19:26;;;;;;;1.73;1.37;;;12.30;98.00;;;;;;5053606;28;20446;-65
2022/05/15 00:21:53;;;;;;;2.03;1.47;;;12.40;98.00;;;;;;5053496;28;20452;-65
2022/05/15 00:24:22;;;;;;;1.50;1.37;;;12.50;98.00;;;;;;5053771;28;20520;-65
2022/05/15 00:26:49;;;;;;;2.30;1.60;;;12.60;98.00;;;;;;5053643;28;20463;-65
2022/05/15 00:29:16;;;;;;;1.47;1.43;;;12.30;98.00;;;;;;5052290;28;20463;-65
2022/05/15 00:31:43;;;;;;;1.50;1.30;;;12.20;98.00;;;;;;5054285;28;20475;-65
2022/05/15 00:34:11;;;;;;;2.17;1.83;;;12.10;98.00;;;;;;5054275;28;20452;-65
2022/05/15 00:36:38;;;;;;;3.53;2.07;;;12.10;98.00;;;;;;5053485;28;20465;-65
2022/05/15 00:39:07;;;;;;;3.00;1.40;;;12.10;98.00;;;;;;5054000;28;20493;-65
2022/05/15 00:41:37;;;;;;;1.53;1.30;;;12.00;98.00;;;;;;5054397;28;20977;-65
2022/05/15 00:44:05;;;;;;;1.80;1.70;;;11.90;98.00;;;;;;5052963;28;20916;-65
2022/05/15 00:46:36;;;;;;;1.87;1.30;;;11.80;98.00;;;;;;5053202;28;20463;-65
2022/05/15 00:49:06;;;;;;;2.00;1.40;;;11.70;98.00;;;;;;5053077;28;20450;-65
2022/05/15 00:51:38;;;;;;;1.60;1.60;;;11.70;98.00;;;;;;5052856;28;20492;-65
2022/05/15 00:54:12;;;;;;;6.00;1.73;;;11.70;98.00;;;;;;5052910;28;20464;-65
2022/05/15 00:56:48;;;;;;;1.77;1.53;;;11.80;98.00;;;;;;5052844;28;20853;-65
2022/05/15 00:59:20;;;;;;;1.90;1.37;;;12.00;98.00;;;;;;5052634;28;20492;-65
2022/05/15 01:01:48;;;;;;;1.30;1.20;;;12.20;98.00;;;;;;5052928;28;20462;-65
2022/05/15 01:04:16;;;;;;;1.50;1.40;;;12.40;98.00;;;;;;5052965;28;21203;-65
2022/05/15 01:06:44;;;;;;;1.33;1.33;;;12.30;98.00;;;;;;5052517;28;20526;-65
2022/05/15 01:09:12;;;;;;;2.40;1.50;;;12.00;98.00;;;;;;5052893;28;20814;-65
2022/05/15 01:11:43;;;;;;;2.30;1.60;;;11.80;98.00;;;;;;5051883;28;20862;-65
2022/05/15 01:14:13;;;;;;;1.30;1.23;;;11.70;98.00;;;;;;5052704;28;20469;-65
2022/05/15 01:16:41;;;;;;;2.27;1.60;;;11.70;98.00;;;;;;5052794;28;20579;-65
2022/05/15 01:19:11;;;;;;;1.57;1.20;;;11.50;98.00;;;;;;5052479;28;20505;-65
2022/05/15 01:21:51;;;;;;;1.30;1.10;;;11.60;98.00;;;;;;5052396;28;20465;-65
2022/05/15 01:24:18;;;;;;;2.63;1.87;;;11.60;98.00;;;;;;5052546;28;20853;-65
2022/05/15 01:26:45;;;;;;;1.47;1.43;;;11.50;98.00;;;;;;5051340;28;20465;-65
2022/05/15 01:29:12;;;;;;;1.50;1.40;;;11.40;98.00;;;;;;5052514;28;20962;-65
2022/05/15 01:31:40;;;;;;;1.40;1.20;;;11.30;98.00;;;;;;5052243;28;20593;-65
2022/05/15 01:34:08;;;;;;;1.50;1.20;;;11.40;98.00;;;;;;5052171;28;20456;-65
2022/05/15 01:36:35;;;;;;;2.07;1.50;;;11.20;98.00;;;;;;5052125;28;20507;-65
2022/05/15 01:39:04;;;;;;;2.33;1.60;;;11.30;98.00;;;;;;5052119;28;20543;-65
2022/05/15 01:41:32;;;;;;;2.17;1.80;;;11.30;98.00;;;;;;5052190;28;20951;-65
2022/05/15 01:43:59;;;;;;;1.57;1.53;;;11.20;98.00;;;;;;5051932;28;20461;-65
2022/05/15 01:46:28;;;;;;;1.60;1.37;;;11.30;98.00;;;;;;5051812;28;20466;-65
2022/05/15 01:48:56;;;;;;;1.30;1.20;;;11.40;98.00;;;;;;5052005;28;20457;-65
2022/05/15 01:51:24;;;;;;;1.50;1.30;;;11.40;98.00;;;;;;5051751;28;20457;-65
2022/05/15 01:53:51;;;;;;;2.07;1.53;;;11.30;98.00;;;;;;5051889;28;20830;-65
2022/05/15 01:56:20;;;;;;;2.50;1.40;;;11.20;98.00;;;;;;5051647;28;20819;-65
2022/05/15 01:58:47;;;;;;;1.37;1.30;;;11.20;98.00;;;;;;5051579;28;20502;-65
2022/05/15 02:01:14;;;;;;;1.77;1.30;;;11.00;98.00;;;;;;5051765;28;20983;-65
2022/05/15 02:03:47;;;;;;;1.37;1.30;;;11.00;98.00;;;;;;5051498;28;20459;-65
2022/05/15 02:06:14;;;;;;;1.50;1.30;;;11.00;98.00;;;;;;5051833;28;20483;-65
2022/05/15 02:08:42;;;;;;;2.57;1.87;;;11.20;98.00;;;;;;5051448;28;21024;-65
2022/05/15 02:11:10;;;;;;;1.87;1.20;;;11.10;98.00;;;;;;5051504;28;20527;-65
2022/05/15 02:13:39;;;;;;;1.50;1.33;;;11.00;98.00;;;;;;5051432;28;21001;-65
2022/05/15 02:16:07;;;;;;;1.23;1.13;;;11.00;98.00;;;;;;5051514;28;20468;-65
2022/05/15 02:18:34;;;;;;;1.40;1.30;;;10.90;98.00;;;;;;5050124;28;20567;-65
2022/05/15 02:21:02;;;;;;;1.50;1.30;;;10.80;98.00;;;;;;5051440;28;20508;-65
2022/05/15 02:23:29;;;;;;;1.27;1.13;;;10.70;98.00;;;;;;5049839;28;20514;-65
2022/05/15 02:25:56;;;;;;;1.57;1.50;;;10.70;98.00;;;;;;5050090;28;20460;-65
2022/05/15 02:28:23;;;;;;;1.50;1.30;;;10.70;98.00;;;;;;5051499;28;20467;-65
2022/05/15 02:30:51;;;;;;;2.17;1.50;;;10.70;98.00;;;;;;5051523;28;20468;-65
2022/05/15 02:33:20;;;;;;;1.20;1.00;;;10.70;98.00;;;;;;5051386;28;20455;-65
2022/05/15 02:35:48;;;;;;;4.47;1.77;;;10.70;98.00;;;;;;5051113;28;20526;-65
2022/05/15 02:38:22;;;;;;;1.90;1.43;;;10.80;98.00;;;;;;5051275;28;20507;-65
2022/05/15 02:40:49;;;;;;;1.60;1.20;;;10.70;98.00;;;;;;5051208;28;20456;-65
2022/05/15 02:43:18;;;;;;;3.00;1.63;;;10.70;98.00;;;;;;5051256;28;20456;-65
2022/05/15 02:45:46;;;;;;;1.30;1.13;;;10.60;98.00;;;;;;5051007;28;20456;-65
2022/05/15 02:51:05;;;;;;;1.80;1.33;;;10.60;98.00;;;;;;5050978;28;20545;-65
2022/05/15 02:53:32;;;;;;;1.50;1.30;;;10.50;98.00;;;;;;5049698;28;20456;-65
2022/05/15 02:56:00;;;;;;;1.47;1.17;;;10.50;98.00;;;;;;5050962;28;20453;-65
2022/05/15 02:58:28;;;;;;;1.40;1.37;;;10.60;98.00;;;;;;5049417;28;20489;-65
2022/05/15 03:00:56;;;;;;;1.40;1.30;;;10.70;98.00;;;;;;5050869;28;20520;-65
2022/05/15 03:03:25;;;;;;;2.20;1.47;;;10.70;98.00;;;;;;5050963;28;20483;-65
2022/05/15 03:05:54;;;;;;;1.63;1.30;;;10.60;98.00;;;;;;5051075;28;20461;-65
2022/05/15 03:08:21;;;;;;;1.27;1.17;;;10.60;98.00;;;;;;5050751;28;21007;-65
2022/05/15 03:10:48;;;;;;;1.70;1.10;;;10.40;98.00;;;;;;5051043;28;20457;-65
2022/05/15 03:13:15;;;;;;;1.50;1.30;;;10.30;98.00;;;;;;5050979;28;20468;-65
2022/05/15 03:15:42;;;;;;;1.40;1.23;;;10.40;98.00;;;;;;5050728;28;20450;-65
2022/05/15 03:18:10;;;;;;;1.40;1.20;;;10.40;98.00;;;;;;5050669;28;20470;-65
2022/05/15 03:20:38;;;;;;;2.80;2.10;;;10.50;98.00;;;;;;5050632;28;20456;-65
2022/05/15 03:23:06;;;;;;;2.53;1.80;;;10.50;98.00;;;;;;5050951;28;20468;-65
2022/05/15 03:25:34;;;;;;;1.80;1.50;;;10.30;98.00;;;;;;5050648;28;20469;-65
2022/05/15 03:28:04;;;;;;;1.20;1.20;;;10.30;98.00;;;;;;5051002;28;20486;-65
2022/05/15 03:30:31;;;;;;;1.53;1.30;;;10.20;98.00;;;;;;5050797;28;20511;-65
2022/05/15 03:32:58;;;;;;;1.20;1.20;;;10.30;98.00;;;;;;5050734;28;20820;-65
2022/05/15 03:35:25;;;;;;;1.50;1.10;;;10.30;98.00;;;;;;5052526;28;20463;-65
2022/05/15 03:37:54;;;;;;;1.87;1.50;;;10.40;98.00;;;;;;5053221;28;20476;-65
2022/05/15 03:40:21;;;;;;;1.40;1.40;;;10.40;98.00;;;;;;5054048;28;20491;-65
2022/05/15 03:42:48;;;;;;;1.70;1.40;;;10.30;98.00;;;;;;5054196;28;20457;-65
2022/05/15 03:45:15;;;;;;;2.50;1.60;;;10.20;98.00;;;;;;5053108;28;20466;-65
2022/05/15 03:47:46;;;;;;;1.73;1.40;;;10.20;98.00;;;;;;5054142;28;20536;-65
2022/05/15 03:50:14;;;;;;;1.30;1.20;;;10.30;98.00;;;;;;5053976;28;20452;-65
2022/05/15 03:52:41;;;;;;;2.17;1.40;;;10.40;98.00;;;;;;5053898;28;20453;-65
2022/05/15 03:55:11;;;;;;;1.20;1.10;;;10.40;98.00;;;;;;5054029;28;20458;-65
2022/05/15 03:57:38;;;;;;;1.20;1.10;;;10.30;98.00;;;;;;5053940;28;20454;-65
2022/05/15 04:00:08;;;;;;;1.53;1.17;;;10.40;98.00;;;;;;5053723;28;20483;-65
2022/05/15 04:02:37;;;;;;;2.87;1.47;;;10.40;98.00;;;;;;5053809;28;20461;-65
2022/05/15 04:05:04;;;;;;;1.40;1.30;;;10.30;98.00;;;;;;5054060;28;20490;-65
2022/05/15 04:07:31;;;;;;;1.57;1.30;;;10.30;98.00;;;;;;5053577;28;20523;-65
2022/05/15 04:09:59;;;;;;;2.07;1.30;;;10.20;98.00;;;;;;5053565;28;20465;-64
2022/05/15 04:12:28;;;;;;;2.07;1.50;;;10.10;98.00;;;;;;5052385;28;20454;-65
2022/05/15 04:14:55;;;;;;;2.10;1.50;;;10.20;98.00;;;;;;5053742;28;20452;-65
2022/05/15 04:17:22;;;;;;;1.60;1.30;;;10.30;98.00;;;;;;5053533;28;20452;-65
2022/05/15 04:19:49;;;;;;;1.30;1.20;;;10.20;98.00;;;;;;5053413;28;20486;-65
2022/05/15 04:22:16;;;;;;;1.53;1.50;;;10.20;98.00;;;;;;5053361;28;21035;-65
2022/05/15 04:24:45;;;;;;;1.57;1.50;;;10.40;98.00;;;;;;5052266;28;20464;-65
2022/05/15 04:27:12;;;;;;;2.03;1.27;;;10.50;98.00;;;;;;5053338;28;20969;-65
2022/05/15 04:29:40;;;;;;;1.20;1.03;;;10.70;98.00;;;;;;5053517;28;20452;-65
2022/05/15 04:32:08;;;;;;;2.67;1.83;;;10.90;98.00;;;;;;5053487;28;20455;-65
2022/05/15 04:34:35;;;;;;;1.80;1.37;;;10.70;98.00;;;;;;5053305;28;20465;-65
2022/05/15 04:37:02;;;;;;;1.97;1.40;;;10.60;98.00;;;;;;5053446;28;20468;-65
2022/05/15 04:39:32;;;;;;;1.20;1.00;;;10.70;98.00;;;;;;5052939;28;20479;-65
2022/05/15 04:42:00;;;;;;;1.37;1.27;;;10.80;98.00;;;;;;5053115;28;20457;-65
2022/05/15 04:44:27;;;;;;;1.90;1.40;;;10.70;98.00;;;;;;5051943;28;20484;-65
2022/05/15 04:46:56;;;;;;;1.40;1.13;;;10.60;98.00;;;;;;5052961;28;20452;-65
2022/05/15 04:49:23;;;;;;;2.03;1.53;;;10.60;98.00;;;;;;5053140;28;20481;-65
2022/05/15 04:51:51;;;;;;;1.30;1.10;;;10.60;98.00;;;;;;5052685;28;21048;-65
2022/05/15 04:54:18;;;;;;;1.73;1.67;;;10.60;98.00;;;;;;5053004;28;20826;-65
2022/05/15 04:56:45;;;;;;;1.90;1.57;;;10.60;98.00;;;;;;5052841;28;20466;-65
2022/05/15 04:59:12;;;;;;;2.03;1.67;;;10.60;98.00;;;;;;5052684;28;20489;-65
2022/05/15 05:01:39;;;;;;;3.27;1.80;;;10.70;98.00;;;;;;5052788;28;20474;-65
2022/05/15 05:04:12;;;;;;;1.70;1.23;;;10.60;98.00;;;;;;5052795;28;20468;-65
2022/05/15 05:06:40;;;;;;;1.50;1.20;;;10.70;98.00;;;;;;5052535;28;20475;-65
2022/05/15 05:09:07;;;;;;;1.40;1.27;;;10.70;98.00;;;;;;5052676;28;20465;-65
2022/05/15 05:11:35;;;;;;;1.50;1.30;;;10.90;98.00;;;;;;5052420;28;20463;-65
2022/05/15 05:14:02;;;;;;;1.50;1.20;;;11.20;98.00;;;;;;5051333;28;20463;-65
2022/05/15 05:16:30;;;;;;;2.23;1.47;;;11.50;98.00;;;;;;5052573;28;20510;-65
2022/05/15 05:18:57;;;;;;;1.40;1.23;;;11.70;98.00;;;;;;5051055;28;20513;-65
2022/05/15 05:21:32;;;;;;;2.80;1.73;;;11.80;98.00;;;;;;5052145;28;20460;-65
2022/05/15 05:23:59;;;;;;;4.10;1.33;;;12.00;98.00;;;;;;5052498;28;20466;-65
2022/05/15 05:26:26;;;;;;;3.80;1.40;;;12.00;98.00;;;;;;5052284;28;21008;-65
2022/05/15 05:28:54;;;;;;;1.80;1.60;;;11.80;98.00;;;;;;5051197;28;20546;-65
2022/05/15 05:31:21;;;;;;;1.80;1.77;;;11.80;98.00;;;;;;5051130;28;20948;-65
2022/05/15 05:33:49;;;;;;;2.37;1.70;;;11.80;98.00;;;;;;5052335;28;20455;-65
2022/05/15 05:36:16;;;;;;;1.50;1.40;;;11.80;98.00;;;;;;5052232;28;20951;-65
2022/05/15 05:38:45;;;;;;;3.63;1.73;;;11.90;98.00;;;;;;5052244;28;20463;-65
2022/05/15 05:41:12;;;;;;;2.27;1.90;;;11.90;98.00;;;;;;5052004;28;20529;-65
2022/05/15 05:43:40;;;;;;;1.67;1.57;;;12.10;98.00;;;;;;5051870;28;20465;-65
2022/05/15 05:46:07;;;;;;;2.23;1.40;;;12.20;98.00;;;;;;5052038;28;20454;-65
2022/05/15 05:48:40;;;;;;;2.27;1.60;;;12.30;98.00;;;;;;5051982;28;20461;-65
2022/05/15 05:51:07;;;;;;;1.30;1.23;;;12.40;98.00;;;;;;5052037;28;20448;-65
2022/05/15 05:53:34;;;;;;;2.07;1.67;;;12.70;98.00;;;;;;5050789;28;20452;-65
2022/05/15 05:56:03;;;;;;;1.83;1.80;;;12.90;98.00;;;;;;5051720;28;20509;-65
2022/05/15 05:58:30;;;;;;;1.60;1.50;;;13.00;98.00;;;;;;5050940;28;20491;-65
2022/05/15 06:00:57;;;;;;;1.27;1.27;;;13.10;98.00;;;;;;5051555;28;20996;-65
2022/05/15 06:06:09;;;;;;;2.30;1.90;;;13.30;98.00;;;;;;5051677;28;20479;-64
2022/05/15 06:08:36;;;;;;;1.30;1.23;;;13.40;98.00;;;;;;5051363;28;20508;-64
2022/05/15 06:11:04;;;;;;;2.13;1.50;;;13.50;98.00;;;;;;5051689;28;20475;-64
2022/05/15 06:13:31;;;;;;;1.97;1.40;;;13.60;98.00;;;;;;5051471;28;20953;-64
2022/05/15 06:15:59;;;;;;;1.93;1.73;;;13.80;98.00;;;;;;5051546;28;20461;-64
2022/05/15 06:18:26;;;;;;;1.90;1.60;;;14.00;98.00;;;;;;5051164;28;20477;-64
2022/05/15 06:20:53;;;;;;;1.80;1.30;;;14.10;98.00;;;;;;5051178;28;20484;-64
2022/05/15 06:23:24;;;;;;;2.10;1.50;;;14.20;98.00;;;;;;5051385;28;20460;-63
2022/05/15 06:25:51;;;;;;;2.47;1.67;;;14.20;98.00;;;;;;5051610;28;20459;-62
2022/05/15 06:28:19;;;;;;;4.93;1.63;;;14.30;98.00;;;;;;5051441;28;20871;-62
2022/05/15 06:30:46;;;;;;;1.90;1.50;;;14.40;98.00;;;;;;5051337;28;20602;-62
2022/05/15 06:33:14;;;;;;;2.23;1.90;;;14.40;98.00;;;;;;5051567;28;20532;-62
2022/05/15 06:35:42;;;;;;;1.67;1.60;;;14.30;98.00;;;;;;5051151;28;20509;-63
2022/05/15 06:38:09;;;;;;;1.63;1.50;;;14.40;98.00;;;;;;5051108;28;20461;-62
2022/05/15 06:40:36;;;;;;;1.53;1.40;;;14.50;98.00;;;;;;5049962;28;20486;-62
2022/05/15 06:43:03;;;;;;;1.83;1.50;;;14.70;98.00;;;;;;5049883;28;20955;-62
2022/05/15 06:45:32;;;;;;;3.47;1.70;;;14.70;98.00;;;;;;5051192;28;20466;-62
2022/05/15 06:48:00;;;;;;;2.80;1.90;;;14.80;98.00;;;;;;5050974;28;20476;-62
2022/05/15 06:50:27;;;;;;;3.97;1.70;;;14.90;98.00;;;;;;5050905;28;20532;-62
2022/05/15 06:52:54;;;;;;;1.93;1.90;;;15.00;98.00;;;;;;5050962;28;20876;-62
2022/05/15 06:55:23;;;;;;;2.40;2.00;;;15.20;98.00;;;;;;5049478;28;20959;-62
2022/05/15 06:57:50;;;;;;;2.40;1.70;;;15.40;98.00;;;;;;5050549;28;20461;-63
2022/05/15 07:00:20;;;;;;;1.70;1.60;;;15.40;98.00;;;;;;5050924;28;20485;-62
2022/05/15 07:02:48;;;;;;;1.63;1.40;;;15.50;98.00;;;;;;5050830;28;20515;-63
2022/05/15 07:05:20;;;;;;;3.30;1.60;;;15.60;98.00;;;;;;5051090;28;20459;-63
2022/05/15 07:07:47;;;;;;;2.57;1.70;;;15.80;98.00;;;;;;5050824;28;20461;-62
2022/05/15 07:10:14;;;;;;;1.83;1.40;;;15.90;98.00;;;;;;5054625;28;20830;-63
2022/05/15 07:12:41;;;;;;;4.60;2.57;;;16.00;98.00;;;;;;5053775;28;20544;-62
2022/05/15 07:15:10;;;;;;;3.43;1.50;;;16.10;98.00;;;;;;5055888;28;20526;-62
2022/05/15 07:17:37;;;;;;;1.60;1.50;;;16.20;98.00;;;;;;5055209;28;20966;-62
2022/05/15 07:20:08;;;;;;;3.23;2.10;;;16.30;98.00;;;;;;5054342;28;20484;-63
2022/05/15 07:22:36;;;;;;;2.33;1.80;;;16.40;98.00;;;;;;5054053;28;20470;-62
2022/05/15 07:25:04;;;;;;;2.13;2.00;;;16.50;98.00;;;;;;5054442;28;20453;-63
2022/05/15 07:27:31;;;;;;;2.33;1.60;;;16.70;98.00;;;;;;5055331;28;20459;-63
2022/05/15 07:29:58;;;;;;;1.90;1.60;;;16.90;98.00;;;;;;5046242;28;20485;-63
2022/05/15 07:32:25;;;;;;;3.53;1.93;;;17.00;98.00;;;;;;5044058;28;20456;-63
2022/05/15 07:34:52;;;;;;;2.47;1.70;;;17.20;98.00;;;;;;5054005;28;20457;-63
2022/05/15 07:37:22;;;;;;;2.00;1.83;;;17.40;98.00;;;;;;5055053;28;20469;-62
2022/05/15 07:39:49;;;;;;;2.13;1.73;;;17.50;98.00;;;;;;5054897;28;20485;-62
2022/05/15 07:42:17;;;;;;;2.47;1.73;;;17.70;98.00;;;;;;5054671;28;20453;-62
2022/05/15 07:44:44;;;;;;;2.20;1.53;;;17.90;98.00;;;;;;5053380;28;20457;-62
2022/05/15 07:47:11;;;;;;;1.70;1.60;;;18.20;98.00;;;;;;5054339;28;20461;-62
2022/05/15 07:49:39;;;;;;;1.87;1.70;;;18.50;98.00;;;;;;5053289;28;20521;-62
2022/05/15 07:52:07;;;;;;;2.47;1.80;;;18.70;98.00;;;;;;5054427;28;20461;-62
2022/05/15 07:54:37;;;;;;;3.30;1.80;;;18.90;98.00;;;;;;5054290;28;20454;-62
2022/05/15 07:57:05;;;;;;;1.57;1.50;;;19.30;98.00;;;;;;5054382;28;20457;-62
2022/05/15 07:59:32;;;;;;;1.77;1.57;;;19.40;98.00;;;;;;5054150;28;20461;-62
2022/05/15 08:02:02;;;;;;;2.40;1.57;;;19.60;98.00;;;;;;5054158;28;20963;-62
2022/05/15 08:04:29;;;;;;;2.80;1.80;;;19.80;98.00;;;;;;5054504;28;20480;-62
2022/05/15 08:09:43;;;;;;;4.03;2.10;;;20.30;98.00;;;;;;5054566;28;20437;-62
2022/05/15 08:12:10;;;;;;;1.63;1.40;;;20.40;97.60;;;;;;5054567;28;20466;-62
2022/05/15 08:14:39;;;;;;;2.80;1.57;;;20.40;96.50;;;;;;5054479;28;20461;-62
2022/05/15 08:17:06;;;;;;;2.77;2.10;;;20.50;96.50;;;;;;5054393;28;20501;-62
2022/05/15 08:25:06;;;;;;;1.77;1.50;;;21.10;91.90;;;;;;5054075;28;20445;-62
2022/05/15 08:27:33;;;;;;;2.23;1.87;;;21.20;90.10;;;;;;5054251;28;20469;-62
2022/05/15 08:30:00;;;;;;;1.87;1.57;;;21.30;89.80;;;;;;5054297;28;21006;-62
2022/05/15 08:32:27;;;;;;;3.10;2.00;;;21.50;93.50;;;;;;5054119;28;20453;-62
2022/05/15 08:34:54;;;;;;;2.13;1.70;;;21.80;91.30;;;;;;5054043;28;20560;-62
2022/05/15 08:37:21;;;;;;;1.80;1.70;;;21.90;89.20;;;;;;5053781;28;20460;-62
2022/05/15 08:39:48;;;;;;;2.00;1.60;;;22.00;88.10;;;;;;5053730;28;21003;-63
2022/05/15 08:42:24;;;;;;;2.07;1.70;;;22.10;87.00;;;;;;5052527;28;20460;-63
2022/05/15 08:44:56;;;;;;;2.00;1.70;;;22.30;87.20;;;;;;5053805;28;20462;-64
2022/05/15 08:47:34;;;;;;;2.70;1.63;;;22.40;88.50;;;;;;5053428;28;20460;-63
2022/05/15 08:50:05;;;;;;;1.90;1.80;;;22.70;87.90;;;;;;5045795;28;20943;-63
2022/05/15 08:52:40;;;;;;;1.93;1.70;;;22.90;86.00;;;;;;5052742;28;20485;-63
2022/05/15 08:55:11;;;;;;;2.10;1.70;;;23.00;84.30;;;;;;5053581;28;20453;-62
2022/05/15 08:57:45;;;;;;;2.93;1.87;;;23.10;86.40;;;;;;5053298;28;20548;-62
2022/05/15 09:00:16;;;;;;;2.03;1.80;;;23.20;85.60;;;;;;5053331;28;20485;-61
2022/05/15 09:02:45;;;;;;;2.10;1.70;;;23.30;85.80;;;;;;5053352;28;20951;-62
2022/05/15 09:05:14;;;;;;;1.80;1.60;;;23.40;84.80;;;;;;5053286;28;20450;-62
2022/05/15 09:07:53;;;;;;;3.30;1.80;;;23.50;85.30;;;;;;5053425;28;20450;-61
2022/05/15 09:10:29;;;;;;;1.70;1.60;;;23.70;85.80;;;;;;5053308;28;20950;-61
2022/05/15 09:13:06;;;;;;;1.70;1.50;;;23.80;81.80;;;;;;5053354;28;20449;-61
2022/05/15 09:15:34;;;;;;;1.90;1.63;;;23.90;84.10;;;;;;5053084;28;20491;-62
2022/05/15 09:18:04;;;;;;;4.80;2.07;;;24.00;81.80;;;;;;5045832;28;20454;-62
2022/05/15 09:20:49;;;;;;;2.97;1.80;;;24.10;83.80;;;;;;5052874;28;21007;-61
2022/05/15 09:23:23;;;;;;;3.87;1.67;;;24.30;82.40;;;;;;5051118;28;20460;-61
2022/05/15 09:25:57;;;;;;;1.80;1.57;;;24.40;82.90;;;;;;5052255;28;20453;-62
2022/05/15 09:28:28;;;;;;;3.10;1.70;;;24.70;82.90;;;;;;5052208;28;20458;-62
2022/05/15 09:30:58;;;;;;;2.80;1.50;;;24.80;81.10;;;;;;5052108;28;20465;-62
2022/05/15 09:33:30;;;;;;;3.10;1.80;;;25.00;81.10;;;;;;5050141;28;20450;-62
2022/05/15 09:36:18;;;;;;;1.67;1.60;;;25.10;79.80;;;;;;5052835;28;20548;-61
2022/05/15 09:38:47;;;;;;;2.10;1.73;;;25.10;78.80;;;;;;5052895;28;20484;-62
2022/05/15 09:44:25;;;;;;;2.53;1.87;;;25.30;79.80;;;;;;5030335;28;20462;-62
2022/05/15 09:46:58;;;;;;;3.23;1.90;;;25.40;79.60;;;;;;5048280;28;20545;-62
2022/05/15 09:49:28;;;;;;;2.27;1.80;;;25.50;80.10;;;;;;5052677;28;20465;-62
2022/05/15 09:51:58;;;;;;;1.83;1.53;;;25.70;79.00;;;;;;5052434;28;20485;-62
2022/05/15 09:54:32;;;;;;;2.07;1.80;;;25.80;78.40;;;;;;5052391;28;20828;-62
2022/05/15 09:57:16;;;;;;;1.83;1.60;;;25.90;79.10;;;;;;5051078;28;20458;-61
2022/05/15 09:59:53;;;;;;;2.93;1.90;;;26.10;77.80;;;;;;5051102;28;20465;-62
2022/05/15 10:02:23;;;;;;;2.53;1.90;;;26.20;77.10;;;;;;5052541;28;20523;-62
2022/05/15 10:04:52;;;;;;;2.70;1.80;;;26.30;76.70;;;;;;5052516;28;20457;-62
2022/05/15 10:07:35;;;;;;;2.73;1.87;;;26.40;76.30;;;;;;5052180;28;20962;-62
2022/05/15 10:10:20;;;;;;;2.23;1.63;;;26.40;78.10;;;;;;5052091;28;20515;-62
2022/05/15 10:12:52;;;;;;;3.93;1.93;;;26.50;76.50;;;;;;5052039;28;20454;-62
2022/05/15 10:15:24;;;;;;;2.07;1.80;;;26.60;76.00;;;;;;5052169;28;20821;-62
2022/05/15 10:17:54;;;;;;;2.60;2.03;;;26.70;75.40;;;;;;5052144;28;20511;-62
2022/05/15 10:20:24;;;;;;;2.30;1.70;;;26.70;73.60;;;;;;5051885;28;20485;-62
2022/05/15 10:23:02;;;;;;;2.43;1.83;;;26.80;73.90;;;;;;5051811;28;20450;-62
2022/05/15 10:25:50;;;;;;;2.10;1.90;;;27.00;73.20;;;;;;5051957;28;20453;-62
2022/05/15 10:28:29;;;;;;;2.63;1.83;;;27.00;74.00;;;;;;5051984;28;20476;-62
2022/05/15 10:31:04;;;;;;;2.13;1.60;;;27.20;73.70;;;;;;5051395;28;20461;-62
2022/05/15 10:33:37;;;;;;;2.47;1.50;;;27.20;73.50;;;;;;5052203;28;20959;-62
2022/05/15 10:36:17;;;;;;;2.03;1.60;;;27.30;71.60;;;;;;5051952;28;20458;-62
2022/05/15 10:38:55;;;;;;;2.53;1.73;;;27.40;74.70;;;;;;5052222;28;20457;-62
2022/05/15 10:41:28;;;;;;;2.20;1.80;;;27.60;73.70;;;;;;5052266;28;20917;-62
2022/05/15 10:44:10;;;;;;;2.47;1.90;;;27.70;72.70;;;;;;5051472;28;20461;-62
2022/05/15 10:46:46;;;;;;;3.50;2.10;;;27.80;72.90;;;;;;5051606;28;20453;-62
2022/05/15 10:49:37;;;;;;;2.63;1.90;;;28.00;71.90;;;;;;5050546;28;20457;-62
2022/05/15 10:52:13;;;;;;;4.43;2.10;;;28.00;71.20;;;;;;5051661;28;20449;-62
2022/05/15 10:57:46;;;;;;;2.00;1.70;;;28.20;71.30;;;;;;5051634;28;20508;-62
2022/05/15 11:00:33;;;;;;;3.20;2.30;;;28.20;70.60;;;;;;5051449;28;20860;-62
2022/05/15 11:03:23;;;;;;;5.10;2.00;;;28.30;73.10;;;;;;5051938;28;20531;-62
2022/05/15 11:06:15;;;;;;;1.83;1.40;;;28.50;71.00;;;;;;5051522;28;20457;-62
2022/05/15 11:08:48;;;;;;;2.47;2.10;;;28.70;68.40;;;;;;5042676;28;21105;-62
2022/05/15 11:11:22;;;;;;;6.23;3.47;;;28.80;69.10;;;;;;5051446;28;20857;-62
2022/05/15 11:13:55;;;;;;;1.87;1.67;;;29.00;70.60;;;;;;5051640;28;20884;-62
2022/05/15 11:16:32;;;;;;;2.97;2.07;;;29.10;69.60;;;;;;5051436;28;20972;-62
2022/05/15 11:19:37;;;;;;;3.00;2.17;;;29.20;70.30;;;;;;5050390;28;20496;-62
2022/05/15 11:22:18;;;;;;;2.17;1.67;;;29.40;69.20;;;;;;5050375;28;21170;-62
2022/05/15 11:24:52;;;;;;;3.20;1.90;;;29.60;66.40;;;;;;5051509;28;20468;-62
2022/05/15 11:27:27;;;;;;;3.40;1.80;;;29.60;66.80;;;;;;5050003;28;20465;-62
2022/05/15 11:29:59;;;;;;;3.73;1.90;;;29.80;67.10;;;;;;5051572;28;20449;-62
2022/05/15 11:32:39;;;;;;;1.80;1.80;;;29.90;67.20;;;;;;5051379;28;20477;-62
2022/05/15 11:35:27;;;;;;;3.37;2.57;;;30.00;68.90;;;;;;5051708;28;20461;-62
2022/05/15 11:38:08;;;;;;;2.93;2.10;;;30.20;68.10;;;;;;5051392;28;20485;-62
2022/05/15 11:40:39;;;;;;;4.47;2.40;;;30.30;66.80;;;;;;5051473;28;20460;-62
2022/05/15 11:43:35;;;;;;;1.80;1.63;;;30.30;67.40;;;;;;5051603;28;20477;-62
2022/05/15 11:46:04;;;;;;;2.20;1.80;;;30.40;68.10;;;;;;5051004;28;20553;-62
2022/05/15 11:48:34;;;;;;;2.60;1.70;;;30.50;65.10;;;;;;5049533;28;20465;-62
2022/05/15 11:51:05;;;;;;;2.60;1.90;;;30.60;66.20;;;;;;5049627;28;20801;-62
2022/05/15 11:53:34;;;;;;;4.90;2.07;;;30.70;66.50;;;;;;5051195;28;20512;-62
2022/05/15 11:56:21;;;;;;;2.30;1.80;;;30.90;65.00;;;;;;5052321;28;20492;-63
2022/05/15 11:58:54;;;;;;;2.03;1.70;;;31.10;64.40;;;;;;5054849;28;20472;-62
2022/05/15 12:01:44;;;;;;;2.27;1.70;;;31.20;64.00;;;;;;5054607;28;20882;-61
2022/05/15 12:04:38;;;;;;;2.73;1.70;;;31.20;65.50;;;;;;5054862;28;20563;-62
2022/05/15 12:07:29;;;;;;;2.00;1.90;;;31.30;62.90;;;;;;5047738;28;20519;-63
2022/05/15 12:09:58;;;;;;;4.03;1.87;;;31.50;65.10;;;;;;5054741;28;20507;-63
2022/05/15 12:12:52;;;;;;;2.20;1.90;;;31.70;62.90;;;;;;5053286;28;20461;-63
2022/05/15 12:15:46;;;;;;;2.03;1.73;;;31.70;63.90;;;;;;5054731;28;20535;-61
2022/05/15 12:18:29;;;;;;;2.90;2.03;;;31.80;63.80;;;;;;5052916;28;20537;-60
2022/05/15 12:20:57;;;;;;;4.20;2.07;;;32.00;61.70;;;;;;5054576;28;20477;-61
2022/05/15 12:23:32;;;;;;;2.50;2.00;;;32.00;61.70;;;;;;5054763;28;20469;-61
2022/05/15 12:26:08;;;;;;;4.60;2.00;;;32.00;62.10;;;;;;5054451;28;20511;-60
2022/05/15 12:28:52;;;;;;;1.83;1.70;;;32.20;61.40;;;;;;5054485;28;20461;-61
2022/05/15 12:31:31;;;;;;;2.43;1.60;;;32.30;60.50;;;;;;5054340;28;20453;-61
2022/05/15 12:34:10;;;;;;;2.00;1.90;;;32.50;61.30;;;;;;5053370;28;20457;-61
2022/05/15 12:36:39;;;;;;;3.03;2.10;;;32.30;59.20;;;;;;5256041;22;20434;-62
2022/05/15 12:39:16;;;;;;;3.17;2.00;;;32.40;59.10;;;;;;5031965;28;20470;-61
2022/05/15 12:41:45;;;;;;;2.00;1.70;;;32.00;58.90;;;;;;5033371;28;20592;-61
2022/05/15 12:44:12;;;;;;;1.90;1.70;;;32.30;61.80;;;;;;5031345;28;20447;-61
2022/05/15 12:46:41;;;;;;;2.93;2.03;;;32.50;60.70;;;;;;5033165;28;20557;-61
2022/05/15 12:49:10;;;;;;;2.10;1.90;;;32.60;58.40;;;;;;5033292;28;20930;-61
2022/05/15 12:51:39;;;;;;;2.33;1.83;;;32.80;59.20;;;;;;5032869;28;20520;-61
2022/05/15 12:54:23;;;;;;;4.30;2.33;;;32.90;56.50;;;;;;5015602;28;20474;-62
2022/05/15 12:56:59;;;;;;;2.53;1.80;;;33.10;57.80;;;;;;5032944;28;20632;-61
2022/05/15 12:59:29;;;;;;;2.20;1.90;;;33.30;58.70;;;;;;5032789;28;20537;-61
2022/05/15 13:01:56;;;;;;;2.73;2.00;;;33.50;58.40;;;;;;5032865;28;20953;-61
2022/05/15 13:04:26;;;;;;;2.00;1.70;;;33.50;57.60;;;;;;5015484;28;20478;-61
2022/05/15 13:07:00;;;;;;;3.60;2.17;;;33.30;57.80;;;;;;5032616;28;20458;-63
2022/05/15 13:09:30;;;;;;;2.00;1.80;;;33.30;56.40;;;;;;5032534;28;20481;-63
2022/05/15 13:12:01;;;;;;;2.80;2.00;;;33.30;54.90;;;;;;5032648;28;20486;-61
2022/05/15 13:14:32;;;;;;;2.80;2.10;;;33.20;57.60;;;;;;5032636;28;20909;-61
2022/05/15 13:17:00;;;;;;;2.63;2.03;;;33.20;58.00;;;;;;5032897;28;20455;-61
2022/05/15 13:19:31;;;;;;;3.03;1.93;;;33.00;57.70;;;;;;5033061;28;20462;-61
2022/05/15 13:21:59;;;;;;;2.47;1.90;;;33.00;56.10;;;;;;5032959;28;20455;-61
2022/05/15 13:24:30;;;;;;;2.67;2.07;;;33.20;59.10;;;;;;5015024;28;20467;-61
2022/05/15 13:27:01;;;;;;;2.47;1.90;;;33.40;58.60;;;;;;5033013;28;20455;-61